createdAt,value
2023-01-08T00:00:22.555Z,1004.61
2023-01-08T00:01:22.471Z,1004.58
2023-01-08T00:02:22.445Z,1004.56
2023-01-08T00:03:22.533Z,1004.51
2023-01-08T00:04:22.439Z,1004.52
2023-01-08T00:05:22.399Z,1004.51
2023-01-08T00:06:22.415Z,1004.47
2023-01-08T00:07:22.368Z,1004.50
2023-01-08T00:08:22.368Z,1004.46
2023-01-08T00:09:22.375Z,1004.48
2023-01-08T00:10:22.346Z,1004.46
2023-01-08T00:11:22.333Z,1004.51
2023-01-08T00:12:22.324Z,1004.50
2023-01-08T00:13:22.302Z,1004.45
2023-01-08T00:14:22.310Z,1004.46
2023-01-08T00:15:22.271Z,1004.36
2023-01-08T00:16:22.324Z,1004.30
2023-01-08T00:17:22.240Z,1004.31
2023-01-08T00:18:22.235Z,1004.25
2023-01-08T00:19:22.227Z,1004.33
2023-01-08T00:20:22.197Z,1004.26
2023-01-08T00:21:22.198Z,1004.27
2023-01-08T00:22:22.180Z,1004.24
2023-01-08T00:23:22.160Z,1004.24
2023-01-08T00:24:22.147Z,1004.22
2023-01-08T00:25:22.150Z,1004.24
2023-01-08T00:26:22.163Z,1004.23
2023-01-08T00:27:22.115Z,1004.13
2023-01-08T00:28:22.117Z,1004.21
2023-01-08T00:29:22.100Z,1004.17
2023-01-08T00:30:22.092Z,1004.15
2023-01-08T00:31:22.120Z,1004.20
2023-01-08T00:32:22.099Z,1004.20
2023-01-08T00:33:22.028Z,1004.23
2023-01-08T00:34:22.028Z,1004.15
2023-01-08T00:35:22.021Z,1004.18
2023-01-08T00:36:21.997Z,1004.18
2023-01-08T00:37:21.981Z,1004.19
2023-01-08T00:38:21.991Z,1004.20
2023-01-08T00:39:21.967Z,1004.20
2023-01-08T00:40:21.952Z,1004.16
2023-01-08T00:41:21.938Z,1004.14
2023-01-08T00:42:21.930Z,1004.14
2023-01-08T00:43:21.924Z,1004.12
2023-01-08T00:44:21.899Z,1004.08
2023-01-08T00:45:21.880Z,1004.10
2023-01-08T00:46:21.928Z,1004.03
2023-01-08T00:47:21.849Z,1004.05
2023-01-08T00:48:21.830Z,1003.98
2023-01-08T00:49:21.837Z,1004.04
2023-01-08T00:50:21.807Z,1004.01
2023-01-08T00:51:21.789Z,1004.08
2023-01-08T00:52:28.828Z,1004.04
2023-01-08T00:53:21.784Z,1004.04
2023-01-08T00:54:21.767Z,1004.01
2023-01-08T00:55:21.766Z,1003.99
2023-01-08T00:56:21.746Z,1003.95
2023-01-08T00:57:21.733Z,1003.88
2023-01-08T00:58:21.718Z,1003.82
2023-01-08T00:59:21.692Z,1003.75
2023-01-08T01:00:21.684Z,1003.80
2023-01-08T01:01:21.867Z,1003.76
2023-01-08T01:02:21.695Z,1003.67
2023-01-08T01:03:21.644Z,1003.69
2023-01-08T01:04:21.683Z,1003.77
2023-01-08T01:05:21.649Z,1003.70
2023-01-08T01:06:21.636Z,1003.74
2023-01-08T01:07:21.607Z,1003.82
2023-01-08T01:08:21.599Z,1003.77
2023-01-08T01:09:21.566Z,1003.79
2023-01-08T01:10:21.608Z,1003.83
2023-01-08T01:11:21.531Z,1003.73
2023-01-08T01:12:21.532Z,1003.91
2023-01-08T01:13:21.537Z,1003.86
2023-01-08T01:14:21.510Z,1003.86
2023-01-08T01:15:21.525Z,1003.80
2023-01-08T01:16:21.529Z,1003.77
2023-01-08T01:17:21.461Z,1003.81
2023-01-08T01:18:21.476Z,1003.77
2023-01-08T01:19:21.480Z,1003.76
2023-01-08T01:20:21.436Z,1003.74
2023-01-08T01:21:21.406Z,1003.75
2023-01-08T01:22:21.417Z,1003.73
2023-01-08T01:23:21.387Z,1003.75
2023-01-08T01:24:21.396Z,1003.76
2023-01-08T01:25:21.365Z,1003.71
2023-01-08T01:26:21.360Z,1003.68
2023-01-08T01:27:21.338Z,1003.76
2023-01-08T01:28:21.328Z,1003.76
2023-01-08T01:29:21.306Z,1003.72
2023-01-08T01:30:21.315Z,1003.72
2023-01-08T01:31:21.416Z,1003.71
2023-01-08T01:32:21.266Z,1003.74
2023-01-08T01:33:21.266Z,1003.74
2023-01-08T01:34:21.276Z,1003.81
2023-01-08T01:35:21.257Z,1003.78
2023-01-08T01:36:21.269Z,1003.77
2023-01-08T01:37:21.260Z,1003.74
2023-01-08T01:38:21.224Z,1003.72
2023-01-08T01:39:21.219Z,1003.73
2023-01-08T01:40:21.178Z,1003.75
2023-01-08T01:41:21.154Z,1003.70
2023-01-08T01:42:21.154Z,1003.62
2023-01-08T01:43:21.115Z,1003.58
2023-01-08T01:44:21.131Z,1003.60
2023-01-08T01:45:21.177Z,1003.56
2023-01-08T01:46:21.214Z,1003.56
2023-01-08T01:47:21.082Z,1003.58
2023-01-08T01:48:21.078Z,1003.57
2023-01-08T01:49:21.045Z,1003.55
2023-01-08T01:50:21.065Z,1003.57
2023-01-08T01:51:21.019Z,1003.56
2023-01-08T01:52:21.016Z,1003.52
2023-01-08T01:53:20.998Z,1003.60
2023-01-08T01:54:20.996Z,1003.54
2023-01-08T01:55:21.014Z,1003.51
2023-01-08T01:56:20.974Z,1003.55
2023-01-08T01:57:20.958Z,1003.62
2023-01-08T01:58:20.940Z,1003.59
2023-01-08T01:59:20.905Z,1003.47
2023-01-08T02:00:20.929Z,1003.46
2023-01-08T02:01:21.024Z,1003.54
2023-01-08T02:02:22.970Z,1003.56
2023-01-08T02:03:20.881Z,1003.60
2023-01-08T02:04:20.897Z,1003.57
2023-01-08T02:05:20.855Z,1003.51
2023-01-08T02:06:20.825Z,1003.43
2023-01-08T02:07:20.826Z,1003.36
2023-01-08T02:08:20.813Z,1003.30
2023-01-08T02:09:20.797Z,1003.27
2023-01-08T02:10:20.800Z,1003.27
2023-01-08T02:11:20.774Z,1003.33
2023-01-08T02:12:20.746Z,1003.33
2023-01-08T02:13:20.756Z,1003.31
2023-01-08T02:14:20.721Z,1003.34
2023-01-08T02:15:20.734Z,1003.32
2023-01-08T02:16:20.759Z,1003.30
2023-01-08T02:17:20.694Z,1003.29
2023-01-08T02:18:20.702Z,1003.24
2023-01-08T02:19:20.687Z,1003.17
2023-01-08T02:20:20.652Z,1003.12
2023-01-08T02:21:20.644Z,1003.14
2023-01-08T02:22:20.614Z,1003.15
2023-01-08T02:23:20.644Z,1003.20
2023-01-08T02:24:20.603Z,1003.18
2023-01-08T02:25:20.586Z,1003.21
2023-01-08T02:26:20.572Z,1003.17
2023-01-08T02:27:20.567Z,1003.12
2023-01-08T02:28:20.545Z,1003.08
2023-01-08T02:29:20.554Z,1003.07
2023-01-08T02:30:20.530Z,1003.12
2023-01-08T02:31:20.568Z,1003.09
2023-01-08T02:32:20.475Z,1003.07
2023-01-08T02:33:20.501Z,1003.05
2023-01-08T02:34:20.485Z,1002.99
2023-01-08T02:35:20.463Z,1003.01
2023-01-08T02:36:20.425Z,1002.98
2023-01-08T02:37:20.423Z,1002.96
2023-01-08T02:38:20.406Z,1002.92
2023-01-08T02:39:20.460Z,1002.90
2023-01-08T02:40:20.385Z,1002.91
2023-01-08T02:41:20.395Z,1002.84
2023-01-08T02:42:20.363Z,1002.88
2023-01-08T02:43:20.359Z,1002.84
2023-01-08T02:44:20.338Z,1002.87
2023-01-08T02:45:20.350Z,1002.81
2023-01-08T02:46:20.357Z,1002.89
2023-01-08T02:47:20.295Z,1002.93
2023-01-08T02:48:20.272Z,1002.95
2023-01-08T02:49:20.264Z,1002.90
2023-01-08T02:50:20.264Z,1002.88
2023-01-08T02:51:20.242Z,1002.86
2023-01-08T02:52:20.215Z,1002.91
2023-01-08T02:53:20.224Z,1002.90
2023-01-08T02:54:20.196Z,1002.90
2023-01-08T02:55:20.206Z,1002.90
2023-01-08T02:56:20.214Z,1002.86
2023-01-08T02:57:20.177Z,1002.83
2023-01-08T02:58:20.152Z,1002.83
2023-01-08T02:59:20.153Z,1002.83
2023-01-08T03:00:20.151Z,1002.79
2023-01-08T03:01:20.243Z,1002.71
2023-01-08T03:02:20.273Z,1002.69
2023-01-08T03:03:20.095Z,1002.71
2023-01-08T03:04:20.128Z,1002.65
2023-01-08T03:05:20.100Z,1002.69
2023-01-08T03:06:20.050Z,1002.66
2023-01-08T03:07:20.048Z,1002.64
2023-01-08T03:08:20.046Z,1002.68
2023-01-08T03:09:20.031Z,1002.68
2023-01-08T03:10:19.996Z,1002.66
2023-01-08T03:11:19.998Z,1002.68
2023-01-08T03:12:19.991Z,1002.68
2023-01-08T03:13:19.965Z,1002.66
2023-01-08T03:14:19.945Z,1002.61
2023-01-08T03:15:19.940Z,1002.59
2023-01-08T03:16:19.929Z,1002.50
2023-01-08T03:17:19.905Z,1002.51
2023-01-08T03:18:19.894Z,1002.48
2023-01-08T03:19:19.896Z,1002.51
2023-01-08T03:20:19.866Z,1002.49
2023-01-08T03:21:19.867Z,1002.47
2023-01-08T03:22:19.847Z,1002.51
2023-01-08T03:23:19.898Z,1002.51
2023-01-08T03:24:19.831Z,1002.51
2023-01-08T03:25:19.809Z,1002.53
2023-01-08T03:26:19.801Z,1002.57
2023-01-08T03:27:19.777Z,1002.59
2023-01-08T03:28:19.749Z,1002.63
2023-01-08T03:29:19.756Z,1002.63
2023-01-08T03:30:19.725Z,1002.58
2023-01-08T03:31:19.855Z,1002.56
2023-01-08T03:32:19.708Z,1002.57
2023-01-08T03:33:19.700Z,1002.60
2023-01-08T03:34:19.714Z,1002.61
2023-01-08T03:35:19.683Z,1002.65
2023-01-08T03:36:19.673Z,1002.65
2023-01-08T03:37:19.657Z,1002.63
2023-01-08T03:38:19.627Z,1002.56
2023-01-08T03:39:19.627Z,1002.54
2023-01-08T03:40:19.628Z,1002.51
2023-01-08T03:41:19.614Z,1002.49
2023-01-08T03:42:19.582Z,1002.44
2023-01-08T03:43:19.566Z,1002.42
2023-01-08T03:44:19.567Z,1002.36
2023-01-08T03:45:19.544Z,1002.31
2023-01-08T03:46:19.546Z,1002.27
2023-01-08T03:47:19.515Z,1002.28
2023-01-08T03:48:19.497Z,1002.28
2023-01-08T03:49:19.485Z,1002.30
2023-01-08T03:50:26.496Z,1002.31
2023-01-08T03:51:19.492Z,1002.28
2023-01-08T03:52:19.460Z,1002.30
2023-01-08T03:53:19.441Z,1002.28
2023-01-08T03:54:19.434Z,1002.29
2023-01-08T03:55:19.413Z,1002.32
2023-01-08T03:56:19.405Z,1002.27
2023-01-08T03:57:19.389Z,1002.28
2023-01-08T03:58:19.371Z,1002.29
2023-01-08T03:59:19.382Z,1002.21
2023-01-08T04:00:19.359Z,1002.33
2023-01-08T04:01:19.420Z,1002.34
2023-01-08T04:02:19.472Z,1002.34
2023-01-08T04:03:19.330Z,1002.36
2023-01-08T04:04:19.335Z,1002.37
2023-01-08T04:05:19.311Z,1002.38
2023-01-08T04:06:19.272Z,1002.38
2023-01-08T04:07:19.267Z,1002.35
2023-01-08T04:08:19.244Z,1002.36
2023-01-08T04:09:19.236Z,1002.39
2023-01-08T04:10:19.216Z,1002.41
2023-01-08T04:11:19.229Z,1002.44
2023-01-08T04:12:19.170Z,1002.37
2023-01-08T04:13:19.196Z,1002.40
2023-01-08T04:14:19.167Z,1002.39
2023-01-08T04:15:19.162Z,1002.36
2023-01-08T04:16:19.193Z,1002.35
2023-01-08T04:17:19.131Z,1002.35
2023-01-08T04:18:19.132Z,1002.34
2023-01-08T04:19:19.114Z,1002.40
2023-01-08T04:20:19.082Z,1002.40
2023-01-08T04:21:19.083Z,1002.41
2023-01-08T04:22:19.070Z,1002.41
2023-01-08T04:23:19.049Z,1002.38
2023-01-08T04:24:19.031Z,1002.38
2023-01-08T04:25:19.034Z,1002.42
2023-01-08T04:26:19.002Z,1002.37
2023-01-08T04:27:18.990Z,1002.32
2023-01-08T04:28:18.987Z,1002.33
2023-01-08T04:29:18.993Z,1002.30
2023-01-08T04:30:18.968Z,1002.32
2023-01-08T04:31:19.007Z,1002.30
2023-01-08T04:32:18.930Z,1002.27
2023-01-08T04:33:18.943Z,1002.32
2023-01-08T04:34:18.924Z,1002.27
2023-01-08T04:35:18.975Z,1002.33
2023-01-08T04:36:18.877Z,1002.37
2023-01-08T04:37:18.863Z,1002.35
2023-01-08T04:38:18.853Z,1002.36
2023-01-08T04:39:18.854Z,1002.32
2023-01-08T04:40:18.852Z,1002.27
2023-01-08T04:41:18.844Z,1002.28
2023-01-08T04:42:18.802Z,1002.22
2023-01-08T04:43:18.813Z,1002.18
2023-01-08T04:44:18.773Z,1002.21
2023-01-08T04:45:18.832Z,1002.16
2023-01-08T04:46:18.831Z,1002.08
2023-01-08T04:47:18.742Z,1002.11
2023-01-08T04:48:18.724Z,1002.05
2023-01-08T04:49:18.725Z,1002.13
2023-01-08T04:50:18.725Z,1002.10
2023-01-08T04:51:18.684Z,1002.10
2023-01-08T04:52:18.683Z,1002.02
2023-01-08T04:53:18.671Z,1002.00
2023-01-08T04:54:18.637Z,1002.00
2023-01-08T04:55:18.651Z,1001.91
2023-01-08T04:56:18.608Z,1001.97
2023-01-08T04:57:18.606Z,1002.00
2023-01-08T04:58:18.598Z,1001.97
2023-01-08T04:59:18.610Z,1001.94
2023-01-08T05:00:18.577Z,1001.97
2023-01-08T05:01:18.625Z,1001.92
2023-01-08T05:02:18.792Z,1001.90
2023-01-08T05:03:18.566Z,1001.89
2023-01-08T05:04:18.534Z,1001.88
2023-01-08T05:05:18.523Z,1001.87
2023-01-08T05:06:18.487Z,1001.83
2023-01-08T05:07:18.481Z,1001.88
2023-01-08T05:08:18.477Z,1001.89
2023-01-08T05:09:18.453Z,1001.88
2023-01-08T05:10:18.444Z,1001.88
2023-01-08T05:11:18.434Z,1001.90
2023-01-08T05:12:18.406Z,1001.82
2023-01-08T05:13:18.403Z,1001.84
2023-01-08T05:14:18.388Z,1001.90
2023-01-08T05:15:18.402Z,1001.78
2023-01-08T05:16:18.422Z,1001.85
2023-01-08T05:17:18.351Z,1001.88
2023-01-08T05:18:18.330Z,1001.90
2023-01-08T05:19:18.321Z,1001.90
2023-01-08T05:20:19.150Z,1001.91
2023-01-08T05:21:18.311Z,1001.86
2023-01-08T05:22:18.277Z,1001.88
2023-01-08T05:23:18.291Z,1001.90
2023-01-08T05:24:18.244Z,1001.86
2023-01-08T05:25:18.252Z,1001.86
2023-01-08T05:26:18.239Z,1001.80
2023-01-08T05:27:18.279Z,1001.85
2023-01-08T05:28:18.205Z,1001.84
2023-01-08T05:29:18.203Z,1001.90
2023-01-08T05:30:18.174Z,1001.93
2023-01-08T05:31:18.302Z,1001.89
2023-01-08T05:32:18.167Z,1001.80
2023-01-08T05:33:18.152Z,1001.73
2023-01-08T05:34:18.123Z,1001.77
2023-01-08T05:35:18.123Z,1001.84
2023-01-08T05:36:18.094Z,1001.80
2023-01-08T05:37:18.150Z,1001.79
2023-01-08T05:38:18.068Z,1001.74
2023-01-08T05:39:18.094Z,1001.76
2023-01-08T05:40:18.044Z,1001.72
2023-01-08T05:41:18.066Z,1001.74
2023-01-08T05:42:18.021Z,1001.74
2023-01-08T05:43:18.042Z,1001.72
2023-01-08T05:44:18.000Z,1001.72
2023-01-08T05:45:18.000Z,1001.73
2023-01-08T05:46:18.020Z,1001.76
2023-01-08T05:47:17.964Z,1001.70
2023-01-08T05:48:17.949Z,1001.74
2023-01-08T05:49:17.953Z,1001.73
2023-01-08T05:50:17.921Z,1001.68
2023-01-08T05:51:17.936Z,1001.71
2023-01-08T05:52:17.892Z,1001.66
2023-01-08T05:53:17.882Z,1001.69
2023-01-08T05:54:17.866Z,1001.67
2023-01-08T05:55:17.865Z,1001.66
2023-01-08T05:56:17.847Z,1001.63
2023-01-08T05:57:17.847Z,1001.53
2023-01-08T05:58:17.814Z,1001.49
2023-01-08T05:59:17.823Z,1001.50
2023-01-08T06:00:17.806Z,1001.48
2023-01-08T06:01:17.825Z,1001.52
2023-01-08T06:02:17.788Z,1001.48
2023-01-08T06:03:17.785Z,1001.47
2023-01-08T06:04:17.803Z,1001.48
2023-01-08T06:05:17.751Z,1001.45
2023-01-08T06:06:17.719Z,1001.42
2023-01-08T06:07:17.731Z,1001.40
2023-01-08T06:08:17.684Z,1001.46
2023-01-08T06:09:17.695Z,1001.45
2023-01-08T06:10:17.670Z,1001.46
2023-01-08T06:11:17.651Z,1001.41
2023-01-08T06:12:17.631Z,1001.45
2023-01-08T06:13:17.644Z,1001.53
2023-01-08T06:14:17.618Z,1001.52
2023-01-08T06:15:17.619Z,1001.52
2023-01-08T06:16:17.731Z,1001.50
2023-01-08T06:17:17.575Z,1001.46
2023-01-08T06:18:17.590Z,1001.44
2023-01-08T06:19:17.550Z,1001.40
2023-01-08T06:20:17.545Z,1001.41
2023-01-08T06:21:17.518Z,1001.45
2023-01-08T06:22:17.517Z,1001.47
2023-01-08T06:23:17.519Z,1001.46
2023-01-08T06:24:17.506Z,1001.49
2023-01-08T06:25:17.462Z,1001.45
2023-01-08T06:26:17.463Z,1001.40
2023-01-08T06:27:17.433Z,1001.36
2023-01-08T06:28:17.437Z,1001.41
2023-01-08T06:29:17.453Z,1001.36
2023-01-08T06:30:17.419Z,1001.37
2023-01-08T06:31:17.415Z,1001.34
2023-01-08T06:32:17.401Z,1001.39
2023-01-08T06:33:19.087Z,1001.34
2023-01-08T06:34:17.363Z,1001.33
2023-01-08T06:35:17.350Z,1001.35
2023-01-08T06:36:17.343Z,1001.28
2023-01-08T06:37:17.322Z,1001.32
2023-01-08T06:38:17.303Z,1001.32
2023-01-08T06:39:17.284Z,1001.28
2023-01-08T06:40:17.283Z,1001.24
2023-01-08T06:41:17.314Z,1001.24
2023-01-08T06:42:17.243Z,1001.24
2023-01-08T06:43:17.298Z,1001.19
2023-01-08T06:44:17.214Z,1001.22
2023-01-08T06:45:17.207Z,1001.24
2023-01-08T06:46:17.249Z,1001.25
2023-01-08T06:47:17.184Z,1001.23
2023-01-08T06:48:17.192Z,1001.22
2023-01-08T06:49:17.174Z,1001.21
2023-01-08T06:50:17.163Z,1001.15
2023-01-08T06:51:17.176Z,1001.22
2023-01-08T06:52:17.147Z,1001.23
2023-01-08T06:53:17.124Z,1001.23
2023-01-08T06:54:17.123Z,1001.21
2023-01-08T06:55:17.091Z,1001.24
2023-01-08T06:56:17.098Z,1001.21
2023-01-08T06:57:17.042Z,1001.21
2023-01-08T06:58:17.056Z,1001.23
2023-01-08T06:59:17.029Z,1001.33
2023-01-08T07:00:17.033Z,1001.26
2023-01-08T07:01:17.171Z,1001.30
2023-01-08T07:02:17.137Z,1001.31
2023-01-08T07:03:17.039Z,1001.31
2023-01-08T07:04:16.965Z,1001.32
2023-01-08T07:05:17.000Z,1001.33
2023-01-08T07:06:16.949Z,1001.37
2023-01-08T07:07:16.934Z,1001.31
2023-01-08T07:08:16.916Z,1001.34
2023-01-08T07:09:16.927Z,1001.31
2023-01-08T07:10:19.693Z,1001.36
2023-01-08T07:11:16.941Z,1001.39
2023-01-08T07:12:16.890Z,1001.37
2023-01-08T07:13:16.863Z,1001.41
2023-01-08T07:14:16.865Z,1001.38
2023-01-08T07:15:16.823Z,1001.38
2023-01-08T07:16:16.925Z,1001.36
2023-01-08T07:17:16.847Z,1001.40
2023-01-08T07:18:16.892Z,1001.40
2023-01-08T07:19:16.967Z,1001.35
2023-01-08T07:20:16.768Z,1001.32
2023-01-08T07:21:16.752Z,1001.37
2023-01-08T07:22:16.726Z,1001.33
2023-01-08T07:23:16.710Z,1001.34
2023-01-08T07:24:16.706Z,1001.36
2023-01-08T07:25:16.724Z,1001.37
2023-01-08T07:26:16.702Z,1001.34
2023-01-08T07:27:16.674Z,1001.29
2023-01-08T07:28:16.719Z,1001.31
2023-01-08T07:29:16.638Z,1001.32
2023-01-08T07:30:28.966Z,1001.28
2023-01-08T07:31:17.701Z,1001.30
2023-01-08T07:32:16.627Z,1001.29
2023-01-08T07:33:16.573Z,1001.35
2023-01-08T07:34:16.562Z,1001.33
2023-01-08T07:35:16.583Z,1001.27
2023-01-08T07:36:16.555Z,1001.25
2023-01-08T07:37:16.547Z,1001.27
2023-01-08T07:38:16.539Z,1001.31
2023-01-08T07:39:16.507Z,1001.29
2023-01-08T07:40:16.531Z,1001.29
2023-01-08T07:41:16.479Z,1001.25
2023-01-08T07:42:16.494Z,1001.25
2023-01-08T07:43:16.483Z,1001.23
2023-01-08T07:44:16.468Z,1001.23
2023-01-08T07:45:16.446Z,1001.22
2023-01-08T07:46:16.510Z,1001.29
2023-01-08T07:47:16.422Z,1001.24
2023-01-08T07:48:16.436Z,1001.27
2023-01-08T07:49:16.426Z,1001.27
2023-01-08T07:50:16.359Z,1001.29
2023-01-08T07:51:16.354Z,1001.32
2023-01-08T07:52:16.354Z,1001.30
2023-01-08T07:53:16.340Z,1001.37
2023-01-08T07:54:16.327Z,1001.30
2023-01-08T07:55:16.368Z,1001.34
2023-01-08T07:56:16.299Z,1001.38
2023-01-08T07:57:16.304Z,1001.35
2023-01-08T07:58:16.270Z,1001.33
2023-01-08T07:59:16.276Z,1001.33
2023-01-08T08:00:16.301Z,1001.34
2023-01-08T08:01:16.274Z,1001.35
2023-01-08T08:02:16.378Z,1001.31
2023-01-08T08:03:16.301Z,1001.36
2023-01-08T08:04:16.184Z,1001.38
2023-01-08T08:05:16.168Z,1001.28
2023-01-08T08:06:16.193Z,1001.33
2023-01-08T08:07:16.164Z,1001.24
2023-01-08T08:08:16.144Z,1001.21
2023-01-08T08:09:16.125Z,1001.22
2023-01-08T08:10:16.131Z,1001.18
2023-01-08T08:11:16.113Z,1001.23
2023-01-08T08:12:16.094Z,1001.23
2023-01-08T08:13:16.080Z,1001.19
2023-01-08T08:14:16.054Z,1001.19
2023-01-08T08:15:16.049Z,1001.15
2023-01-08T08:16:16.098Z,1001.14
2023-01-08T08:17:16.019Z,1001.13
2023-01-08T08:18:16.085Z,1001.18
2023-01-08T08:19:16.000Z,1001.12
2023-01-08T08:20:16.018Z,1001.13
2023-01-08T08:21:15.972Z,1001.19
2023-01-08T08:22:15.965Z,1001.14
2023-01-08T08:23:15.981Z,1001.16
2023-01-08T08:24:15.990Z,1001.13
2023-01-08T08:25:15.907Z,1001.16
2023-01-08T08:26:15.911Z,1001.19
2023-01-08T08:27:15.889Z,1001.16
2023-01-08T08:28:15.875Z,1001.20
2023-01-08T08:29:15.863Z,1001.20
2023-01-08T08:30:15.844Z,1001.17
2023-01-08T08:31:15.858Z,1001.16
2023-01-08T08:32:15.825Z,1001.20
2023-01-08T08:33:15.790Z,1001.23
2023-01-08T08:34:15.794Z,1001.25
2023-01-08T08:35:15.806Z,1001.26
2023-01-08T08:36:15.766Z,1001.27
2023-01-08T08:37:15.758Z,1001.28
2023-01-08T08:38:15.736Z,1001.26
2023-01-08T08:39:15.731Z,1001.19
2023-01-08T08:40:15.714Z,1001.14
2023-01-08T08:41:15.741Z,1001.12
2023-01-08T08:42:15.703Z,1001.15
2023-01-08T08:43:15.680Z,1001.13
2023-01-08T08:44:15.694Z,1001.10
2023-01-08T08:45:15.636Z,1001.03
2023-01-08T08:46:15.702Z,1001.02
2023-01-08T08:47:15.614Z,1001.02
2023-01-08T08:48:15.615Z,1001.02
2023-01-08T08:49:15.586Z,1001.04
2023-01-08T08:50:15.587Z,1000.99
2023-01-08T08:51:15.566Z,1001.03
2023-01-08T08:52:15.607Z,1000.96
2023-01-08T08:53:15.555Z,1000.93
2023-01-08T08:54:15.546Z,1000.94
2023-01-08T08:55:15.507Z,1000.93
2023-01-08T08:56:15.509Z,1000.91
2023-01-08T08:57:15.513Z,1000.88
2023-01-08T08:58:15.493Z,1000.86
2023-01-08T08:59:15.487Z,1000.85
2023-01-08T09:00:15.473Z,1000.78
2023-01-08T09:01:15.622Z,1000.75
2023-01-08T09:02:15.736Z,1000.81
2023-01-08T09:03:15.513Z,1000.81
2023-01-08T09:04:15.400Z,1000.87
2023-01-08T09:05:15.374Z,1000.91
2023-01-08T09:06:15.386Z,1000.96
2023-01-08T09:07:15.355Z,1000.96
2023-01-08T09:08:15.355Z,1000.98
2023-01-08T09:09:15.349Z,1000.98
2023-01-08T09:10:15.366Z,1000.95
2023-01-08T09:11:15.341Z,1000.89
2023-01-08T09:12:15.328Z,1000.89
2023-01-08T09:13:15.294Z,1000.90
2023-01-08T09:14:15.285Z,1000.86
2023-01-08T09:15:15.248Z,1000.76
2023-01-08T09:16:15.314Z,1000.72
2023-01-08T09:17:15.218Z,1000.75
2023-01-08T09:18:16.154Z,1000.77
2023-01-08T09:19:15.226Z,1000.76
2023-01-08T09:20:15.194Z,1000.69
2023-01-08T09:21:15.192Z,1000.64
2023-01-08T09:22:15.188Z,1000.58
2023-01-08T09:23:15.140Z,1000.52
2023-01-08T09:24:15.168Z,1000.50
2023-01-08T09:25:15.176Z,1000.45
2023-01-08T09:26:15.246Z,1000.35
2023-01-08T09:27:15.094Z,1000.21
2023-01-08T09:28:15.091Z,1000.27
2023-01-08T09:29:15.077Z,1000.44
2023-01-08T09:30:15.073Z,1000.68
2023-01-08T09:31:15.116Z,1000.80
2023-01-08T09:32:15.037Z,1000.89
2023-01-08T09:33:15.070Z,1000.95
2023-01-08T09:34:15.017Z,1000.95
2023-01-08T09:35:14.991Z,1000.92
2023-01-08T09:36:14.997Z,1000.89
2023-01-08T09:37:14.966Z,1000.97
2023-01-08T09:38:14.957Z,1000.97
2023-01-08T09:39:14.957Z,1001.00
2023-01-08T09:40:14.996Z,1000.94
2023-01-08T09:41:14.916Z,1000.89
2023-01-08T09:42:14.926Z,1000.89
2023-01-08T09:43:14.899Z,1000.92
2023-01-08T09:44:14.885Z,1000.93
2023-01-08T09:45:14.882Z,1000.92
2023-01-08T09:46:14.929Z,1000.90
2023-01-08T09:47:14.828Z,1001.02
2023-01-08T09:48:14.857Z,1000.99
2023-01-08T09:49:14.846Z,1000.96
2023-01-08T09:50:21.860Z,1000.89
2023-01-08T09:51:14.783Z,1000.92
2023-01-08T09:52:14.781Z,1000.94
2023-01-08T09:53:14.770Z,1000.89
2023-01-08T09:54:14.773Z,1000.88
2023-01-08T09:55:14.726Z,1000.80
2023-01-08T09:56:14.788Z,1000.79
2023-01-08T09:57:14.691Z,1000.82
2023-01-08T09:58:14.711Z,1000.89
2023-01-08T09:59:14.697Z,1001.00
2023-01-08T10:00:14.702Z,1001.04
2023-01-08T10:01:14.785Z,1001.02
2023-01-08T10:02:14.791Z,1001.03
2023-01-08T10:03:14.632Z,1001.01
2023-01-08T10:04:14.634Z,1001.00
2023-01-08T10:05:14.702Z,1001.05
2023-01-08T10:06:14.613Z,1001.02
2023-01-08T10:07:14.623Z,1000.88
2023-01-08T10:08:14.571Z,1000.97
2023-01-08T10:09:14.568Z,1000.95
2023-01-08T10:10:14.693Z,1000.86
2023-01-08T10:11:14.550Z,1000.87
2023-01-08T10:12:14.563Z,1000.82
2023-01-08T10:13:14.491Z,1000.75
2023-01-08T10:14:14.503Z,1000.73
2023-01-08T10:15:14.551Z,1000.65
2023-01-08T10:16:14.483Z,1000.58
2023-01-08T10:17:14.430Z,1000.59
2023-01-08T10:18:14.465Z,1000.51
2023-01-08T10:19:14.413Z,1000.40
2023-01-08T10:20:14.411Z,1000.37
2023-01-08T10:21:14.442Z,1000.37
2023-01-08T10:22:14.381Z,1000.45
2023-01-08T10:23:14.381Z,1000.50
2023-01-08T10:24:14.364Z,1000.46
2023-01-08T10:25:14.352Z,1000.45
2023-01-08T10:26:14.344Z,1000.39
2023-01-08T10:27:14.299Z,1000.48
2023-01-08T10:28:14.331Z,1000.52
2023-01-08T10:29:14.281Z,1000.54
2023-01-08T10:30:14.304Z,1000.55
2023-01-08T10:31:14.352Z,1000.63
2023-01-08T10:32:14.241Z,1000.63
2023-01-08T10:33:14.246Z,1000.66
2023-01-08T10:34:14.222Z,1000.68
2023-01-08T10:35:14.205Z,1000.65
2023-01-08T10:36:14.213Z,1000.69
2023-01-08T10:37:14.232Z,1000.69
2023-01-08T10:38:14.159Z,1000.66
2023-01-08T10:39:14.153Z,1000.67
2023-01-08T10:40:14.139Z,1000.62
2023-01-08T10:41:14.139Z,1000.63
2023-01-08T10:42:14.104Z,1000.68
2023-01-08T10:43:14.134Z,1000.72
2023-01-08T10:44:14.091Z,1000.63
2023-01-08T10:45:14.100Z,1000.66
2023-01-08T10:46:14.137Z,1000.59
2023-01-08T10:47:14.073Z,1000.60
2023-01-08T10:48:14.034Z,1000.57
2023-01-08T10:49:14.034Z,1000.55
2023-01-08T10:50:14.017Z,1000.58
2023-01-08T10:51:14.051Z,1000.59
2023-01-08T10:52:13.978Z,1000.53
2023-01-08T10:53:13.982Z,1000.55
2023-01-08T10:54:13.941Z,1000.54
2023-01-08T10:55:13.958Z,1000.55
2023-01-08T10:56:13.935Z,1000.52
2023-01-08T10:57:13.971Z,1000.51
2023-01-08T10:58:13.903Z,1000.52
2023-01-08T10:59:13.947Z,1000.51
2023-01-08T11:00:13.899Z,1000.53
2023-01-08T11:01:14.015Z,1000.51
2023-01-08T11:02:13.924Z,1000.42
2023-01-08T11:03:13.865Z,1000.50
2023-01-08T11:04:13.830Z,1000.51
2023-01-08T11:05:13.833Z,1000.52
2023-01-08T11:06:13.822Z,1000.53
2023-01-08T11:07:13.796Z,1000.50
2023-01-08T11:08:13.763Z,1000.44
2023-01-08T11:09:14.012Z,1000.39
2023-01-08T11:10:13.741Z,1000.46
2023-01-08T11:11:13.761Z,1000.43
2023-01-08T11:12:13.822Z,1000.33
2023-01-08T11:13:13.712Z,1000.31
2023-01-08T11:14:13.733Z,1000.24
2023-01-08T11:15:13.802Z,1000.26
2023-01-08T11:16:13.707Z,1000.26
2023-01-08T11:17:13.668Z,1000.19
2023-01-08T11:18:13.658Z,1000.23
2023-01-08T11:19:13.646Z,1000.22
2023-01-08T11:20:13.638Z,1000.19
2023-01-08T11:21:13.621Z,1000.14
2023-01-08T11:22:13.585Z,1000.12
2023-01-08T11:23:13.612Z,1000.17
2023-01-08T11:24:13.564Z,1000.11
2023-01-08T11:25:14.123Z,1000.02
2023-01-08T11:26:13.523Z,1000.04
2023-01-08T11:27:13.525Z,1000.00
2023-01-08T11:28:13.504Z,1000.00
2023-01-08T11:29:13.495Z,999.99
2023-01-08T11:30:13.501Z,999.98
2023-01-08T11:31:13.531Z,999.98
2023-01-08T11:32:13.455Z,999.98
2023-01-08T11:33:13.480Z,999.98
2023-01-08T11:34:13.434Z,999.98
2023-01-08T11:35:13.451Z,999.96
2023-01-08T11:36:14.899Z,999.99
2023-01-08T11:37:13.396Z,999.98
2023-01-08T11:38:13.390Z,1000.00
2023-01-08T11:39:13.379Z,999.95
2023-01-08T11:40:13.393Z,999.96
2023-01-08T11:41:13.358Z,1000.02
2023-01-08T11:42:13.341Z,999.92
2023-01-08T11:43:13.327Z,999.93
2023-01-08T11:44:13.496Z,999.86
2023-01-08T11:45:13.297Z,999.89
2023-01-08T11:46:13.284Z,999.88
2023-01-08T11:47:13.252Z,999.79
2023-01-08T11:48:14.629Z,999.81
2023-01-08T11:49:13.249Z,999.77
2023-01-08T11:50:13.261Z,999.76
2023-01-08T11:51:13.213Z,999.77
2023-01-08T11:52:13.197Z,999.77
2023-01-08T11:53:13.196Z,999.76
2023-01-08T11:54:14.387Z,999.77
2023-01-08T11:55:13.179Z,999.83
2023-01-08T11:56:13.207Z,999.84
2023-01-08T11:57:13.156Z,999.80
2023-01-08T11:58:13.126Z,999.85
2023-01-08T11:59:13.161Z,999.84
2023-01-08T12:00:14.428Z,999.78
2023-01-08T12:01:13.154Z,999.82
2023-01-08T12:02:13.113Z,999.78
2023-01-08T12:03:13.112Z,999.76
2023-01-08T12:04:13.051Z,999.71
2023-01-08T12:05:13.039Z,999.65
2023-01-08T12:06:13.004Z,999.58